createdAt,value
2022-10-04T00:02:15.251Z,13.23
2022-10-04T00:05:22.709Z,13.13
2022-10-04T00:11:55.846Z,13.27
2022-10-04T00:15:01.830Z,13.77
2022-10-04T00:18:28.364Z,13.77
2022-10-04T00:21:52.482Z,12.13
2022-10-04T00:25:18.250Z,12.43
2022-10-04T00:28:25.578Z,15.07
2022-10-04T00:31:29.339Z,13.55
2022-10-04T00:34:33.029Z,14.80
2022-10-04T00:38:13.578Z,15.25
2022-10-04T00:41:16.031Z,15.25
2022-10-04T00:44:36.626Z,16.08
2022-10-04T00:47:46.749Z,15.65
2022-10-04T00:50:59.113Z,15.13
2022-10-04T00:54:20.455Z,16.95
2022-10-04T00:57:45.016Z,17.67
2022-10-04T01:00:49.859Z,17.83
2022-10-04T01:03:57.146Z,17.55
2022-10-04T01:07:04.173Z,17.05
2022-10-04T01:10:14.877Z,14.32
2022-10-04T01:13:27.845Z,18.77
2022-10-04T01:16:33.908Z,21.38
2022-10-04T01:19:34.799Z,19.30
2022-10-04T01:22:48.852Z,19.30
2022-10-04T01:25:52.160Z,18.90
2022-10-04T01:28:59.102Z,18.45
2022-10-04T01:32:01.953Z,19.10
2022-10-04T01:35:03.153Z,17.13
2022-10-04T01:38:07.373Z,18.88
2022-10-04T01:41:12.101Z,19.85
2022-10-04T01:44:31.814Z,21.02
2022-10-04T01:47:47.075Z,22.42
2022-10-04T01:51:05.749Z,19.13
2022-10-04T01:54:20.228Z,20.48
2022-10-04T01:57:41.351Z,20.75
2022-10-04T02:01:07.490Z,20.92
2022-10-04T02:04:22.033Z,19.55
2022-10-04T02:07:28.572Z,21.08
2022-10-04T02:10:30.467Z,18.45
2022-10-04T02:13:39.602Z,24.35
2022-10-04T02:16:40.544Z,41.42
2022-10-04T02:19:43.375Z,20.00
2022-10-04T02:22:49.696Z,16.17
2022-10-04T02:25:52.140Z,17.80
2022-10-04T02:28:53.271Z,19.58
2022-10-04T02:32:13.191Z,22.38
2022-10-04T02:35:14.239Z,19.85
2022-10-04T02:38:25.522Z,19.10
2022-10-04T02:41:42.186Z,23.08
2022-10-04T02:44:56.895Z,24.60
2022-10-04T02:48:27.741Z,23.85
2022-10-04T02:51:46.967Z,22.65
2022-10-04T02:55:20.642Z,21.95
2022-10-04T02:58:25.942Z,24.88
2022-10-04T03:01:58.127Z,24.27
2022-10-04T03:05:13.460Z,25.83
2022-10-04T03:08:15.105Z,24.60
2022-10-04T03:11:19.251Z,25.63
2022-10-04T03:14:25.172Z,24.40
2022-10-04T03:17:26.535Z,23.95
2022-10-04T03:20:28.545Z,24.65
2022-10-04T03:23:33.617Z,24.02
2022-10-04T03:26:47.344Z,26.02
2022-10-04T03:29:50.578Z,26.60
2022-10-04T03:32:53.171Z,27.58
2022-10-04T03:35:59.282Z,28.42
2022-10-04T03:39:00.457Z,26.73
2022-10-04T03:42:36.397Z,27.70
2022-10-04T03:45:37.580Z,26.90
2022-10-04T03:48:45.213Z,27.50
2022-10-04T03:51:51.295Z,28.77
2022-10-04T03:54:57.599Z,28.35
2022-10-04T03:58:02.544Z,29.30
2022-10-04T04:01:11.602Z,27.60
2022-10-04T04:04:31.362Z,27.00
2022-10-04T04:07:37.695Z,27.52
2022-10-04T04:10:46.650Z,27.45
2022-10-04T04:13:57.058Z,27.50
2022-10-04T04:17:41.063Z,26.55
2022-10-04T04:20:44.221Z,27.02
2022-10-04T04:23:58.250Z,28.42
2022-10-04T04:27:05.469Z,28.60
2022-10-04T04:30:13.472Z,22.88
2022-10-04T04:33:29.868Z,23.55
2022-10-04T04:36:40.614Z,22.87
2022-10-04T04:39:41.639Z,23.65
2022-10-04T04:42:43.081Z,23.45
2022-10-04T04:45:45.367Z,24.02
2022-10-04T04:48:52.551Z,22.48
2022-10-04T04:51:53.809Z,21.98
2022-10-04T04:54:56.741Z,24.35
2022-10-04T04:57:59.580Z,22.67
2022-10-04T05:01:18.023Z,22.45
2022-10-04T05:04:24.177Z,21.55
2022-10-04T05:07:25.149Z,22.65
2022-10-04T05:10:34.328Z,23.10
2022-10-04T05:14:02.048Z,20.30
2022-10-04T05:17:03.062Z,21.20
2022-10-04T05:20:05.921Z,21.52
2022-10-04T05:23:13.155Z,22.88
2022-10-04T05:26:14.935Z,18.30
2022-10-04T05:29:27.815Z,19.52
2022-10-04T05:32:53.929Z,19.77
2022-10-04T05:36:19.095Z,18.83
2022-10-04T05:39:58.083Z,19.75
2022-10-04T05:42:59.634Z,20.13
2022-10-04T05:46:23.394Z,18.92
2022-10-04T05:49:30.894Z,18.88
2022-10-04T05:52:38.760Z,18.02
2022-10-04T05:56:11.834Z,18.90
2022-10-04T05:59:40.750Z,16.85
2022-10-04T06:03:18.782Z,18.60
2022-10-04T06:06:43.183Z,19.83
2022-10-04T06:10:28.947Z,21.50
2022-10-04T06:14:18.088Z,21.10
2022-10-04T06:17:45.858Z,20.85
2022-10-04T06:21:13.494Z,21.90
2022-10-04T06:24:27.495Z,21.95
2022-10-04T06:27:41.750Z,26.85
2022-10-04T06:31:28.824Z,28.77
2022-10-04T06:34:59.174Z,27.85
2022-10-04T06:39:08.830Z,27.50
2022-10-04T06:43:05.854Z,26.92
2022-10-04T06:46:29.380Z,27.70
2022-10-04T06:49:45.688Z,27.48
2022-10-04T06:53:04.042Z,28.25
2022-10-04T06:56:38.334Z,28.13
2022-10-04T07:00:03.550Z,26.73
2022-10-04T07:03:26.680Z,25.50
2022-10-04T07:06:42.341Z,27.23
2022-10-04T07:09:45.701Z,25.05
2022-10-04T07:13:24.162Z,26.08
2022-10-04T07:16:35.527Z,24.65
2022-10-04T07:19:46.687Z,25.80
2022-10-04T07:23:00.012Z,21.67
2022-10-04T07:26:20.800Z,21.27
2022-10-04T07:29:42.486Z,22.52
2022-10-04T07:32:51.908Z,25.88
2022-10-04T07:36:06.448Z,25.58
2022-10-04T07:39:32.043Z,22.60
2022-10-04T07:42:54.512Z,23.10
2022-10-04T07:46:12.701Z,20.05
2022-10-04T07:49:17.014Z,23.27
2022-10-04T07:52:57.817Z,31.80
2022-10-04T07:56:14.828Z,26.13
2022-10-04T07:59:36.796Z,23.92
2022-10-04T08:03:18.432Z,23.17
2022-10-04T08:06:59.518Z,23.38
2022-10-04T08:10:35.614Z,20.73
2022-10-04T08:13:36.553Z,22.58
2022-10-04T08:17:09.840Z,22.55
2022-10-04T08:20:58.180Z,20.92
2022-10-04T08:24:36.837Z,20.38
2022-10-04T08:28:09.447Z,17.45
2022-10-04T08:31:45.132Z,18.10
2022-10-04T08:35:11.620Z,17.83
2022-10-04T08:38:28.607Z,18.48
2022-10-04T08:42:11.332Z,16.13
2022-10-04T08:45:54.317Z,15.05
2022-10-04T08:49:29.111Z,15.48
2022-10-04T08:53:35.522Z,15.77
2022-10-04T08:57:03.333Z,15.73
2022-10-04T09:00:56.923Z,16.60
2022-10-04T09:04:06.845Z,15.35
2022-10-04T09:07:41.452Z,13.18
2022-10-04T09:11:05.792Z,15.48
2022-10-04T09:14:46.704Z,14.70
2022-10-04T09:18:06.738Z,16.77
2022-10-04T09:21:18.505Z,15.45
2022-10-04T09:24:35.027Z,15.32
2022-10-04T09:28:06.471Z,16.60
2022-10-04T09:31:44.519Z,16.30
2022-10-04T09:35:12.579Z,13.50
2022-10-04T09:39:01.109Z,15.35
2022-10-04T09:42:31.871Z,15.45
2022-10-04T09:46:20.256Z,13.73
2022-10-04T09:49:58.982Z,12.93
2022-10-04T09:53:24.960Z,12.20
2022-10-04T09:57:19.491Z,14.40
2022-10-04T10:00:25.375Z,13.18
2022-10-04T10:04:10.075Z,12.13
2022-10-04T10:07:44.606Z,12.48
2022-10-04T10:11:39.905Z,11.90
2022-10-04T10:15:28.874Z,12.30
2022-10-04T10:18:53.080Z,12.65
2022-10-04T10:22:31.540Z,12.63
2022-10-04T10:26:07.838Z,12.63
2022-10-04T10:29:32.410Z,11.65
2022-10-04T10:33:03.260Z,11.30
2022-10-04T10:36:34.475Z,11.93
2022-10-04T10:40:23.782Z,11.82
2022-10-04T10:43:52.059Z,11.27
2022-10-04T10:47:01.664Z,12.77
2022-10-04T10:50:25.509Z,10.98
2022-10-04T10:53:46.361Z,11.07
2022-10-04T10:56:59.603Z,11.15
2022-10-04T11:00:32.819Z,10.95
2022-10-04T11:04:03.977Z,11.75
2022-10-04T11:07:26.420Z,11.48
2022-10-04T11:11:07.814Z,13.43
2022-10-04T11:15:06.257Z,11.60
2022-10-04T11:18:49.196Z,12.02
2022-10-04T11:22:24.228Z,11.80
2022-10-04T11:25:39.960Z,12.80
2022-10-04T11:29:23.222Z,10.82
2022-10-04T11:33:20.624Z,10.80
2022-10-04T11:36:57.169Z,10.00
2022-10-04T11:40:25.860Z,11.40
2022-10-04T11:44:05.370Z,11.00
2022-10-04T11:47:37.797Z,11.13
2022-10-04T11:51:11.156Z,10.48
2022-10-04T11:54:35.567Z,10.65
2022-10-04T11:57:52.638Z,10.60
2022-10-04T12:01:21.164Z,10.65
2022-10-04T12:04:53.830Z,11.02
2022-10-04T12:08:19.628Z,10.85
2022-10-04T12:12:23.639Z,10.43
2022-10-04T12:16:04.481Z,11.02
2022-10-04T12:19:25.866Z,10.43
2022-10-04T12:22:54.207Z,11.52
2022-10-04T12:26:32.252Z,10.75
2022-10-04T12:29:48.986Z,10.63
2022-10-04T12:33:34.649Z,10.05
2022-10-04T12:37:11.594Z,9.10
2022-10-04T12:40:34.627Z,9.77
2022-10-04T12:44:34.218Z,9.15
2022-10-04T12:48:13.955Z,10.35
2022-10-04T12:51:57.802Z,9.20
2022-10-04T12:55:38.185Z,8.38
2022-10-04T12:58:59.764Z,8.85
2022-10-04T13:02:21.838Z,8.95
2022-10-04T13:05:53.362Z,8.50
2022-10-04T13:09:30.541Z,9.30
2022-10-04T13:13:11.679Z,9.38
2022-10-04T13:20:51.047Z,9.82
2022-10-04T13:24:28.541Z,10.13
2022-10-04T13:27:54.995Z,11.02
2022-10-04T13:31:24.551Z,10.73
2022-10-04T13:34:57.030Z,10.55
2022-10-04T13:38:39.616Z,11.20
2022-10-04T13:42:12.323Z,11.73
2022-10-04T13:45:36.384Z,11.40
2022-10-04T13:49:01.444Z,11.07
2022-10-04T13:52:32.359Z,11.27
2022-10-04T13:56:18.122Z,11.23
2022-10-04T13:59:42.443Z,10.30
2022-10-04T14:03:20.144Z,10.32
2022-10-04T14:06:58.932Z,10.52
2022-10-04T14:10:35.218Z,10.13
2022-10-04T14:14:02.693Z,11.50
2022-10-04T14:17:42.286Z,10.30
2022-10-04T14:21:06.203Z,10.93
2022-10-04T14:24:37.352Z,10.68
2022-10-04T14:28:08.258Z,10.60
2022-10-04T14:32:04.487Z,10.82
2022-10-04T14:39:14.162Z,11.20
2022-10-04T14:43:16.770Z,12.77
2022-10-04T14:46:50.134Z,12.02
2022-10-04T14:50:27.018Z,11.80
2022-10-04T14:53:53.640Z,12.68
2022-10-04T14:57:16.455Z,13.30
2022-10-04T15:01:05.629Z,12.23
2022-10-04T15:04:40.217Z,11.32
2022-10-04T15:07:52.694Z,11.63
2022-10-04T15:11:05.083Z,11.25
2022-10-04T15:14:32.663Z,11.60
2022-10-04T15:17:55.299Z,11.30
2022-10-04T15:21:23.732Z,12.15
2022-10-04T15:24:46.922Z,10.05
2022-10-04T15:27:55.032Z,12.50
2022-10-04T15:31:20.966Z,9.88
2022-10-04T15:34:54.467Z,10.00
2022-10-04T15:38:20.116Z,10.35
2022-10-04T15:41:48.935Z,11.43
2022-10-04T15:45:18.941Z,11.52
2022-10-04T15:48:36.969Z,12.32
2022-10-04T15:52:03.596Z,12.25
2022-10-04T15:55:19.752Z,13.05
2022-10-04T15:59:08.903Z,12.10
2022-10-04T16:03:09.318Z,13.10
2022-10-04T16:06:28.121Z,11.93
2022-10-04T16:10:16.923Z,11.38
2022-10-04T16:13:23.552Z,11.23
2022-10-04T16:16:40.531Z,10.70
2022-10-04T16:20:02.151Z,12.02
2022-10-04T16:23:34.112Z,12.65
2022-10-04T16:26:35.010Z,11.85
2022-10-04T16:30:25.174Z,12.55
2022-10-04T16:33:35.132Z,13.13
2022-10-04T16:37:12.428Z,13.70
2022-10-04T16:40:13.387Z,13.70
2022-10-04T16:43:17.106Z,14.50
2022-10-04T16:46:46.249Z,13.07
2022-10-04T16:49:55.357Z,13.50
2022-10-04T16:53:45.904Z,12.63
2022-10-04T16:56:58.322Z,12.15
2022-10-04T17:00:33.807Z,11.15
2022-10-04T17:03:46.324Z,10.85
2022-10-04T17:06:58.420Z,12.30
2022-10-04T17:10:34.347Z,13.48
2022-10-04T17:13:56.390Z,12.25
2022-10-04T17:17:18.322Z,13.07
2022-10-04T17:20:38.023Z,13.25
2022-10-04T17:24:14.560Z,13.38
2022-10-04T17:27:45.339Z,12.75
2022-10-04T17:31:07.947Z,14.50
2022-10-04T17:34:42.593Z,14.85
2022-10-04T17:38:04.688Z,15.88
2022-10-04T17:41:48.792Z,16.55
2022-10-04T17:45:25.976Z,17.40
2022-10-04T17:48:51.769Z,17.60
2022-10-04T17:52:15.474Z,19.10
2022-10-04T17:55:23.032Z,19.02
2022-10-04T17:58:46.296Z,17.58
2022-10-04T18:01:55.752Z,17.92
2022-10-04T18:05:18.484Z,17.92
2022-10-04T18:08:38.565Z,18.95
2022-10-04T18:11:50.644Z,19.33
2022-10-04T18:15:02.620Z,19.63
2022-10-04T18:18:16.313Z,18.58
2022-10-04T18:21:33.245Z,21.50
2022-10-04T18:24:34.367Z,23.08
2022-10-04T18:27:52.091Z,22.40
2022-10-04T18:31:00.529Z,21.58
2022-10-04T18:34:10.795Z,23.50
2022-10-04T18:37:40.954Z,23.90
2022-10-04T18:40:52.410Z,23.10
2022-10-04T18:43:59.851Z,26.17
2022-10-04T18:47:02.367Z,26.13
2022-10-04T18:50:36.260Z,24.02
2022-10-04T18:53:50.376Z,25.23
2022-10-04T18:57:54.748Z,25.67
2022-10-04T19:01:38.886Z,24.08
2022-10-04T19:05:01.560Z,24.17
2022-10-04T19:08:33.750Z,22.55
2022-10-04T19:12:03.617Z,33.38
2022-10-04T19:15:44.445Z,30.30
2022-10-04T19:19:04.550Z,24.33
2022-10-04T19:22:23.243Z,25.48
2022-10-04T19:25:39.356Z,35.55
2022-10-04T19:28:41.054Z,34.55
2022-10-04T19:32:48.043Z,37.55
2022-10-04T19:36:19.895Z,33.20
2022-10-04T19:39:51.806Z,32.75
2022-10-04T19:43:10.333Z,32.75
2022-10-04T19:46:17.362Z,31.60
2022-10-04T19:49:37.830Z,31.17
2022-10-04T19:52:48.900Z,28.50
2022-10-04T19:55:59.934Z,23.67
2022-10-04T19:59:15.835Z,22.75
2022-10-04T20:02:16.873Z,21.25
2022-10-04T20:05:28.345Z,20.88
2022-10-04T20:08:47.800Z,22.58
2022-10-04T20:11:52.284Z,22.27
2022-10-04T20:15:43.509Z,21.75
2022-10-04T20:18:44.570Z,26.83
2022-10-04T20:21:45.947Z,25.67
2022-10-04T20:24:46.809Z,26.65
2022-10-04T20:27:47.325Z,29.08
2022-10-04T20:30:53.613Z,30.77
2022-10-04T20:33:54.446Z,31.77
2022-10-04T20:36:55.159Z,27.58
2022-10-04T20:39:57.247Z,28.13
2022-10-04T20:43:13.547Z,30.90
2022-10-04T20:46:25.478Z,32.13
2022-10-04T20:49:27.158Z,33.42
2022-10-04T20:52:32.569Z,30.95
2022-10-04T20:55:39.125Z,32.08
2022-10-04T20:58:41.246Z,28.67
2022-10-04T21:01:44.946Z,27.77
2022-10-04T21:04:47.569Z,25.98
2022-10-04T21:07:48.558Z,22.52
2022-10-04T21:11:09.565Z,17.73
2022-10-04T21:14:32.518Z,19.35
2022-10-04T21:17:36.105Z,29.80
2022-10-04T21:20:50.644Z,24.10
2022-10-04T21:23:51.769Z,23.55
2022-10-04T21:26:57.282Z,23.67
2022-10-04T21:30:00.713Z,31.60
2022-10-04T21:33:01.845Z,35.67
2022-10-04T21:36:04.109Z,35.33
2022-10-04T21:39:05.271Z,28.50
2022-10-04T21:42:07.066Z,26.20
2022-10-04T21:45:08.450Z,24.25
2022-10-04T21:48:09.216Z,23.20
2022-10-04T21:51:09.914Z,24.60
2022-10-04T21:54:10.887Z,26.25
2022-10-04T21:57:13.562Z,29.67
2022-10-04T22:00:14.397Z,28.40
2022-10-04T22:03:15.281Z,38.28
2022-10-04T22:06:16.158Z,41.00
2022-10-04T22:09:17.051Z,30.58
2022-10-04T22:12:17.826Z,23.60
2022-10-04T22:15:18.593Z,27.90
2022-10-04T22:18:19.577Z,28.30
2022-10-04T22:21:20.407Z,37.67
2022-10-04T22:24:21.928Z,44.10
2022-10-04T22:27:23.197Z,40.55
2022-10-04T22:30:29.177Z,36.30
2022-10-04T22:33:39.624Z,36.85
2022-10-04T22:36:40.774Z,37.83
2022-10-04T22:39:41.706Z,37.70
2022-10-04T22:42:43.546Z,39.63
2022-10-04T22:45:44.416Z,42.85
2022-10-04T22:48:49.139Z,45.28
2022-10-04T22:51:53.195Z,41.22
2022-10-04T22:55:00.504Z,42.10
2022-10-04T22:58:02.933Z,45.13
2022-10-04T23:01:13.081Z,49.38
2022-10-04T23:04:25.834Z,53.97
2022-10-04T23:07:27.120Z,58.15
2022-10-04T23:10:28.265Z,104.28
2022-10-04T23:13:29.411Z,73.50
2022-10-04T23:16:31.699Z,59.53
2022-10-04T23:19:32.780Z,55.92
2022-10-04T23:22:34.069Z,100.97
2022-10-04T23:25:35.175Z,99.22
2022-10-04T23:28:37.352Z,87.78
2022-10-04T23:31:38.754Z,86.10
2022-10-04T23:34:44.096Z,86.72
2022-10-04T23:37:46.106Z,61.67
2022-10-04T23:40:47.115Z,88.80
2022-10-04T23:43:49.525Z,74.47
2022-10-04T23:46:51.746Z,91.88
2022-10-04T23:49:54.015Z,77.03
2022-10-04T23:53:02.621Z,86.85
2022-10-04T23:56:15.274Z,64.10
2022-10-04T23:59:23.748Z,68.68
